Polk Army Air Field Fort Polk US
ICAO: KPOE
IATA: POE
Category: Medium
Scheduled Services: No

Elevation: 330 ft
TransAlt. 18000 ft.

Airport Communications:
APP/DEP:123.7
ATIS:134.85
FLT FOLLOWING:123.7
GND:121.8
RANGE CON:40.95
MEDEVAC OPS:42.5
POE OPS:36.05
PMSV METRO:135
TWR:41.5

KPOE Zoom In..

If you have problems with the map follow the link
https://www.worldairports.se/pages/airport.php?
ICAO=KPOE

Runways:

(A) RW 16 length 4109 ft width 125 ft
---- / hdg 158

(B) RW 34 length 4109 ft width 125 ft
---- / hdg 338

Location; KPOE
Day. 22 / Time. 10.58 Zulu
* Altimeter: 30.18
* Temperature: 09° c. 48.2°f.
* Wind from: 060° Speed 05 kn.
Dewpoint: 05° c.
Visibility: 10 Statute Miles.
Clouds: Overcast 22000 ft.

KPOE 221058Z AUTO 06005KT 10SM OVC220 09/05 A3018 RMK AO2 SLP222 T00880051


Wind From 060°
Speed 05 kn.

 
 
jpsmedia.com for Web Design worldairports.se 2018   terms of use